Terminal Aerodrome Forecast
Issued by NWS Brownsville, TX

Home | Current Version | Previous Version | Text Only | Print | Product List | Glossary On
Versions: 1 2 3 4 5 6 7 8 9 10 11 12 13 14 15 16 17
482
FTUS44 KBRO 211141 AAA
TAFBRO
TAF AMD
KBRO 211141Z 2112/2212 VRB03KT P6SM SCT006
      TEMPO 2112/2114 1SM BR BKN002
     FM211600 20008KT P6SM SKC
     FM211900 17012KT P6SM SCT040
     FM220000 16005KT P6SM FEW030
     FM220600 VRB03KT 5SM BR SCT020=

USA.gov is the U.S. government's official web portal to all federal, state and local government web resources and services.